Bookmark and Share
Track history (hours):
 

Gas Renovatio

Last reported at 2014-Apr-15 20:09 UTC. Time now 2014-Apr-18 10:47 UTC.
Position N 37°37' W 009°20'.

Length 99 m; draft 5.4 m.

Type: Tanker. MMSI: 256325000.

NotesDate/timePositionNaut miles runAvg speedWind from/ knotsBaromVisibWave heightAir tempDewpointWater temp
2014-Apr-15 20:09N 37°37' W 009°20'610.0
2014-Apr-15 19:32N 37°41' W 009°14'10 9.8
2014-Apr-15 18:33N 37°47' W 009°05'1010.2
2014-Apr-15 17:33N 37°54' W 008°55'4 3.8
2014-Apr-15 16:33N 37°57' W 008°53'0 0.0
2014-Apr-15 15:33N 37°57' W 008°53'0 0.0
2014-Apr-15 14:33N 37°57' W 008°53'0 0.0
2014-Apr-15 12:34N 37°57' W 008°53'0 0.0
2014-Apr-15 11:34N 37°57' W 008°53'0 0.0
2014-Apr-15 10:34N 37°57' W 008°53'0 0.0
2014-Apr-15 09:34N 37°57' W 008°53'0 0.0
2014-Apr-15 08:34N 37°57' W 008°53'0 0.0
2014-Apr-15 07:34N 37°57' W 008°53'0 0.0
2014-Apr-15 06:33N 37°57' W 008°53'0 0.0
2014-Apr-15 05:33N 37°57' W 008°53'9 4.6
2014-Apr-15 03:33N 38°01' W 009°03'1010.1
2014-Apr-15 02:33N 38°05' W 009°15'10 9.9
2014-Apr-15 01:32N 38°09' W 009°27'  
2014-Apr-10 17:24N 38°40' W 009°56'1210.0
2014-Apr-10 16:14N 38°29' W 009°53'27 9.1
2014-Apr-10 13:17N 38°12' W 009°27'7 9.6
2014-Apr-10 12:33N 38°09' W 009°19'9 9.0
2014-Apr-10 11:33N 38°04' W 009°09'10 9.5
2014-Apr-10 10:33N 37°59' W 008°59'5 4.8
2014-Apr-10 09:33N 37°57' W 008°53'0 0.0
2014-Apr-10 08:32N 37°57' W 008°53'0 0.0
2014-Apr-10 07:33N 37°57' W 008°53'0 0.0
2014-Apr-10 06:32N 37°57' W 008°53'0 0.0
2014-Apr-10 05:32N 37°57' W 008°53'0 0.0
2014-Apr-10 04:32N 37°57' W 008°53'0 0.0
2014-Apr-10 03:32N 37°57' W 008°53'0 0.0
2014-Apr-10 02:33N 37°57' W 008°53'0 0.0
2014-Apr-10 01:32N 37°57' W 008°53'0 0.0
2014-Apr-10 00:32N 37°57' W 008°53'0 0.0
2014-Apr-09 23:32N 37°57' W 008°53'0 0.0
2014-Apr-09 22:32N 37°57' W 008°53'0 0.0
2014-Apr-09 21:33N 37°57' W 008°53'0 0.0
2014-Apr-09 20:32N 37°57' W 008°53'0 0.0
2014-Apr-09 19:33N 37°57' W 008°53'0 0.0
2014-Apr-09 18:33N 37°57' W 008°53'0 0.3
2014-Apr-09 17:33N 37°57' W 008°53'2 1.8
2014-Apr-09 16:33N 37°55' W 008°52'0 0.1
2014-Apr-09 15:33N 37°55' W 008°52'0 0.0
2014-Apr-09 14:33N 37°55' W 008°52'0 0.0
2014-Apr-09 13:33N 37°55' W 008°52'0 0.0
2014-Apr-09 12:33N 37°55' W 008°52'0 0.0
2014-Apr-09 11:33N 37°55' W 008°52'0 0.0
2014-Apr-09 10:33N 37°55' W 008°52'0 0.0
2014-Apr-09 09:33N 37°55' W 008°52'0 0.1
2014-Apr-09 08:33N 37°55' W 008°52'0 0.0
2014-Apr-09 07:33N 37°55' W 008°52'0 0.0
2014-Apr-09 06:33N 37°55' W 008°52'0 0.0
2014-Apr-09 05:33N 37°55' W 008°52'0 0.0
2014-Apr-09 04:33N 37°55' W 008°52'0 0.1
2014-Apr-09 03:33N 37°55' W 008°52'0 0.1
2014-Apr-09 02:30N 37°55' W 008°52'0 0.0
2014-Apr-09 01:33N 37°55' W 008°52'2 1.9
2014-Apr-09 00:33N 37°57' W 008°53'0 0.0
2014-Apr-08 23:33N 37°57' W 008°53'0 0.0
2014-Apr-08 22:33N 37°57' W 008°53'0 0.0
2014-Apr-08 21:33N 37°57' W 008°53'0 0.0
2014-Apr-08 20:33N 37°57' W 008°53'0 0.0
2014-Apr-08 19:30N 37°57' W 008°53'0 0.0
2014-Apr-08 18:30N 37°57' W 008°53'2 1.8
2014-Apr-08 17:33N 37°55' W 008°52'0 0.4
2014-Apr-08 16:31N 37°55' W 008°52'0 0.0
2014-Apr-08 15:31N 37°55' W 008°52'0 0.0
2014-Apr-08 14:31N 37°55' W 008°52'0 0.0
2014-Apr-08 13:31N 37°55' W 008°52'0 0.0
2014-Apr-08 12:31N 37°55' W 008°52'0 0.0
2014-Apr-08 11:31N 37°55' W 008°52'0 0.0
2014-Apr-08 10:31N 37°55' W 008°52'0 0.0
2014-Apr-08 09:33N 37°55' W 008°52'0 0.0
2014-Apr-08 08:33N 37°55' W 008°52'7 6.8
2014-Apr-08 07:33N 37°53' W 009°00'10 9.5
2014-Apr-08 06:33N 37°53' W 009°12'1010.0
2014-Apr-08 05:34N 37°54' W 009°25'10 9.8
2014-Apr-08 04:34N 37°55' W 009°37'10 9.7
2014-Apr-08 03:33N 37°55' W 009°50'9 9.2
2014-Apr-08 02:33N 37°56' W 010°02'9 8.8
2014-Apr-08 01:33N 37°56' W 010°13'9 8.7
2014-Apr-08 00:33N 37°57' W 010°24'10 8.7
2014-Apr-07 23:22N 37°57' W 010°37'8 9.0
2014-Apr-07 22:31N 37°58' W 010°46'9 9.1
2014-Apr-07 21:34N 37°58' W 010°58'  

Dump ship's entire track history

sailing weather and tide predictions

Gas Renovatio — 9HA2845 — position and weather